ESMQ

Kalmar Airport

Sweden
METAR ESMQ 190720Z 32007KT CAVOK 23/16 Q1012
Observed Flight Rules
Jul-19 @ 07:20 UTC (17 minutes ago) Visual Flight Rules
Wind Visibility Clouds
320° at 7 knots 10,000+ meters
  • Clear skies
Temperatures Readings
Current 23°C / 73°F
Dewpoint 16°C / 61°F
Humidity 65%
Altimeter 29.88" Hg
Pressure 1012 hPa
Elevation 16
METAR ESMQ 190720Z 32007KT CAVOK 23/16 Q1012
Observed Flight Rules
Jul-19 @ 07:20 UTC
(17 minutes ago)
VFR
Wind Visibility
320° at 7 knots 10,000+ meters
Clouds
  • Clear skies
Temperature Dewpoint
23°C / 73°F 16°C / 61°F
Humidity Altimeter Pressure
65% 29.88" Hg 1012 hPa